CTV390 WIOO-WALL
Flight info
| Callsign | CTV390 |
|---|---|
| Flight time | 1h 26m |
| Altitude | 39000 |
| Route | WIOO/33 DCT ADKON DCT OSRUT DCT BAHAU BAHAU2F WALL/25 |
| Aircraft | A20N/M-SDE2E3FGHIJ1RWXY/LB1 |
Departure
| Time | 2026-04-24 08:33 |
|---|---|
| Airport | Supadio International Airport (WIOO) |
Arrival
| Time | 2026-04-24 10:00 |
|---|---|
| Airport | Sultan Aji Muhammad Sulaiman Sepinggan International Airport (WALL) |
| Time | Latitude | Longitude | Altitude | Speed | Heading |
|---|---|---|---|---|---|
| 2026-04-24 08:21 | -0.14705 | 109.40392 | 31 ft | 0 kts | 68° |
| 2026-04-24 08:24 | -0.14705 | 109.40391 | 31 ft | 2 kts | 68° |
| 2026-04-24 08:25 | -0.14714 | 109.40368 | 31 ft | 4 kts | 75° |
| 2026-04-24 08:25 | -0.14717 | 109.40343 | 31 ft | 4 kts | 110° |
| 2026-04-24 08:25 | -0.14708 | 109.40330 | 31 ft | 0 kts | 158° |
| 2026-04-24 08:28 | -0.14709 | 109.40330 | 31 ft | 0 kts | 158° |
| 2026-04-24 08:28 | -0.14723 | 109.40336 | 31 ft | 6 kts | 157° |
| 2026-04-24 08:29 | -0.14789 | 109.40363 | 31 ft | 15 kts | 158° |
| 2026-04-24 08:29 | -0.14843 | 109.40363 | 32 ft | 2 kts | 223° |
| 2026-04-24 08:29 | -0.14878 | 109.40318 | 31 ft | 16 kts | 206° |
| 2026-04-24 08:29 | -0.15017 | 109.40361 | 32 ft | 28 kts | 156° |
| 2026-04-24 08:30 | -0.15232 | 109.40449 | 31 ft | 38 kts | 159° |
| 2026-04-24 08:30 | -0.15506 | 109.40559 | 30 ft | 46 kts | 158° |
| 2026-04-24 08:30 | -0.15797 | 109.40678 | 29 ft | 45 kts | 157° |
| 2026-04-24 08:30 | -0.16078 | 109.40793 | 30 ft | 43 kts | 157° |
| 2026-04-24 08:31 | -0.16251 | 109.40898 | 31 ft | 20 kts | 146° |
| 2026-04-24 08:31 | -0.16279 | 109.40879 | 32 ft | 5 kts | 293° |
| 2026-04-24 08:31 | -0.16249 | 109.40861 | 31 ft | 0 kts | 335° |
| 2026-04-24 08:32 | -0.16246 | 109.40860 | 31 ft | 3 kts | 335° |
| 2026-04-24 08:32 | -0.16173 | 109.40826 | 30 ft | 21 kts | 335° |
| 2026-04-24 08:32 | -0.16047 | 109.40778 | 30 ft | 0 kts | 337° |
| 2026-04-24 08:32 | -0.16046 | 109.40778 | 30 ft | 1 kts | 337° |
| 2026-04-24 08:33 | -0.15810 | 109.40683 | 29 ft | 80 kts | 338° |
| 2026-04-24 08:33 | -0.15050 | 109.40374 | 33 ft | 152 kts | 338° |
| 2026-04-24 08:33 | -0.13981 | 109.39954 | 550 ft | 169 kts | 341° |
| 2026-04-24 08:33 | -0.12814 | 109.39716 | 1327 ft | 179 kts | 7° |
| 2026-04-24 08:34 | -0.11647 | 109.40248 | 1869 ft | 197 kts | 44° |
| 2026-04-24 08:34 | -0.10968 | 109.41486 | 2313 ft | 216 kts | 79° |
| 2026-04-24 08:34 | -0.11123 | 109.43027 | 2696 ft | 237 kts | 113° |
| 2026-04-24 08:34 | -0.12122 | 109.44388 | 3284 ft | 248 kts | 136° |
| 2026-04-24 08:35 | -0.13422 | 109.45524 | 4145 ft | 249 kts | 136° |
| 2026-04-24 08:35 | -0.14566 | 109.46817 | 4987 ft | 249 kts | 123° |
| 2026-04-24 08:35 | -0.15366 | 109.48352 | 5807 ft | 250 kts | 110° |
| 2026-04-24 08:35 | -0.15867 | 109.50020 | 6613 ft | 252 kts | 102° |
| 2026-04-24 08:36 | -0.16193 | 109.51749 | 7373 ft | 254 kts | 98° |
| 2026-04-24 08:36 | -0.16442 | 109.53506 | 8130 ft | 257 kts | 97° |
| 2026-04-24 08:36 | -0.16672 | 109.55297 | 8727 ft | 266 kts | 97° |
| 2026-04-24 08:36 | -0.16918 | 109.57202 | 9119 ft | 285 kts | 97° |
| 2026-04-24 08:37 | -0.17187 | 109.59161 | 9785 ft | 287 kts | 97° |
| 2026-04-24 08:37 | -0.17458 | 109.61159 | 10473 ft | 296 kts | 97° |
| 2026-04-24 08:37 | -0.17750 | 109.63277 | 10857 ft | 318 kts | 97° |
| 2026-04-24 08:37 | -0.18061 | 109.65544 | 11178 ft | 340 kts | 97° |
| 2026-04-24 08:38 | -0.18385 | 109.67910 | 12004 ft | 345 kts | 97° |
| 2026-04-24 08:38 | -0.18715 | 109.70304 | 12731 ft | 349 kts | 97° |
| 2026-04-24 08:38 | -0.19049 | 109.72719 | 13427 ft | 353 kts | 97° |
| 2026-04-24 08:38 | -0.19381 | 109.75125 | 14122 ft | 355 kts | 97° |
| 2026-04-24 08:39 | -0.19723 | 109.77585 | 14769 ft | 359 kts | 97° |
| 2026-04-24 08:39 | -0.20067 | 109.80072 | 15410 ft | 363 kts | 98° |
| 2026-04-24 08:39 | -0.20414 | 109.82580 | 16027 ft | 366 kts | 98° |
| 2026-04-24 08:39 | -0.20765 | 109.85113 | 16626 ft | 370 kts | 98° |
| 2026-04-24 08:40 | -0.21119 | 109.87668 | 17212 ft | 373 kts | 98° |
| 2026-04-24 08:40 | -0.21475 | 109.90244 | 17814 ft | 376 kts | 98° |
| 2026-04-24 08:40 | -0.21834 | 109.92846 | 18361 ft | 379 kts | 98° |
| 2026-04-24 08:40 | -0.22197 | 109.95469 | 18909 ft | 383 kts | 98° |
| 2026-04-24 08:41 | -0.22564 | 109.98115 | 19433 ft | 386 kts | 98° |
| 2026-04-24 08:41 | -0.22933 | 110.00782 | 19933 ft | 389 kts | 98° |
| 2026-04-24 08:41 | -0.23305 | 110.03472 | 20430 ft | 393 kts | 98° |
| 2026-04-24 08:41 | -0.23681 | 110.06185 | 20911 ft | 396 kts | 98° |
| 2026-04-24 08:42 | -0.24059 | 110.08921 | 21379 ft | 399 kts | 98° |
| 2026-04-24 08:42 | -0.24440 | 110.11674 | 21840 ft | 402 kts | 98° |
| 2026-04-24 08:42 | -0.24825 | 110.14454 | 22298 ft | 405 kts | 98° |
| 2026-04-24 08:42 | -0.25212 | 110.17251 | 22731 ft | 408 kts | 98° |
| 2026-04-24 08:43 | -0.25597 | 110.20032 | 23151 ft | 411 kts | 98° |
| 2026-04-24 08:43 | -0.25990 | 110.22872 | 23560 ft | 414 kts | 98° |
| 2026-04-24 08:43 | -0.26386 | 110.25729 | 23966 ft | 417 kts | 98° |
| 2026-04-24 08:43 | -0.26784 | 110.28605 | 24350 ft | 419 kts | 98° |
| 2026-04-24 08:44 | -0.27185 | 110.31499 | 24738 ft | 422 kts | 98° |
| 2026-04-24 08:44 | -0.27588 | 110.34408 | 25144 ft | 423 kts | 98° |
| 2026-04-24 08:44 | -0.27993 | 110.37331 | 25504 ft | 426 kts | 98° |
| 2026-04-24 08:44 | -0.28399 | 110.40266 | 25855 ft | 428 kts | 98° |
| 2026-04-24 08:45 | -0.28809 | 110.43222 | 26193 ft | 430 kts | 98° |
| 2026-04-24 08:45 | -0.29221 | 110.46196 | 26509 ft | 433 kts | 98° |
| 2026-04-24 08:45 | -0.29634 | 110.49177 | 26870 ft | 434 kts | 98° |
| 2026-04-24 08:45 | -0.30051 | 110.52172 | 27147 ft | 436 kts | 98° |
| 2026-04-24 08:46 | -0.30468 | 110.55179 | 27492 ft | 438 kts | 98° |
| 2026-04-24 08:46 | -0.30885 | 110.58196 | 27799 ft | 440 kts | 98° |
| 2026-04-24 08:46 | -0.31305 | 110.61233 | 28078 ft | 442 kts | 98° |
| 2026-04-24 08:46 | -0.31726 | 110.64280 | 28376 ft | 444 kts | 98° |
| 2026-04-24 08:47 | -0.32149 | 110.67339 | 28655 ft | 445 kts | 98° |
| 2026-04-24 08:47 | -0.32569 | 110.70378 | 28914 ft | 447 kts | 98° |
| 2026-04-24 08:47 | -0.32997 | 110.73467 | 29178 ft | 449 kts | 98° |
| 2026-04-24 08:47 | -0.33426 | 110.76564 | 29440 ft | 451 kts | 98° |
| 2026-04-24 08:48 | -0.33859 | 110.79679 | 29714 ft | 453 kts | 98° |
| 2026-04-24 08:48 | -0.34292 | 110.82802 | 29976 ft | 455 kts | 98° |
| 2026-04-24 08:48 | -0.34728 | 110.85942 | 30237 ft | 457 kts | 98° |
| 2026-04-24 08:48 | -0.35163 | 110.89092 | 30497 ft | 459 kts | 98° |
| 2026-04-24 08:49 | -0.35601 | 110.92255 | 30769 ft | 460 kts | 98° |
| 2026-04-24 08:49 | -0.36039 | 110.95423 | 31071 ft | 461 kts | 98° |
| 2026-04-24 08:49 | -0.36480 | 110.98604 | 31407 ft | 461 kts | 98° |
| 2026-04-24 08:49 | -0.36918 | 111.01770 | 31773 ft | 460 kts | 98° |
| 2026-04-24 08:50 | -0.37356 | 111.04933 | 32130 ft | 459 kts | 98° |
| 2026-04-24 08:50 | -0.37794 | 111.08092 | 32466 ft | 458 kts | 98° |
| 2026-04-24 08:50 | -0.38229 | 111.11240 | 32778 ft | 457 kts | 98° |
| 2026-04-24 08:50 | -0.38656 | 111.14388 | 33094 ft | 456 kts | 97° |
| 2026-04-24 08:51 | -0.39050 | 111.17493 | 33380 ft | 456 kts | 97° |
| 2026-04-24 08:51 | -0.39440 | 111.20634 | 33699 ft | 455 kts | 97° |
| 2026-04-24 08:51 | -0.39831 | 111.23777 | 33958 ft | 456 kts | 97° |
| 2026-04-24 08:51 | -0.40226 | 111.26923 | 34222 ft | 455 kts | 97° |
| 2026-04-24 08:52 | -0.40621 | 111.30059 | 34471 ft | 454 kts | 97° |
| 2026-04-24 08:52 | -0.41017 | 111.33186 | 34774 ft | 453 kts | 97° |
| 2026-04-24 08:52 | -0.41411 | 111.36303 | 35049 ft | 452 kts | 97° |
| 2026-04-24 08:52 | -0.41805 | 111.39413 | 35295 ft | 451 kts | 97° |
| 2026-04-24 08:53 | -0.42198 | 111.42518 | 35535 ft | 450 kts | 97° |
| 2026-04-24 08:53 | -0.42591 | 111.45618 | 35806 ft | 449 kts | 97° |
| 2026-04-24 08:53 | -0.42981 | 111.48710 | 36047 ft | 449 kts | 97° |
| 2026-04-24 08:53 | -0.43372 | 111.51803 | 36301 ft | 447 kts | 97° |
| 2026-04-24 08:54 | -0.43762 | 111.54883 | 36521 ft | 447 kts | 97° |
| 2026-04-24 08:54 | -0.44152 | 111.57960 | 36781 ft | 445 kts | 97° |
| 2026-04-24 08:54 | -0.44541 | 111.61023 | 37114 ft | 442 kts | 97° |
| 2026-04-24 08:54 | -0.44925 | 111.64059 | 37414 ft | 439 kts | 97° |
| 2026-04-24 08:55 | -0.45307 | 111.67079 | 37721 ft | 436 kts | 97° |
| 2026-04-24 08:55 | -0.45686 | 111.70075 | 37954 ft | 434 kts | 97° |
| 2026-04-24 08:55 | -0.46064 | 111.73069 | 38099 ft | 435 kts | 98° |
| 2026-04-24 08:55 | -0.46443 | 111.76063 | 38259 ft | 434 kts | 98° |
| 2026-04-24 08:56 | -0.46817 | 111.79011 | 38418 ft | 433 kts | 98° |
| 2026-04-24 08:56 | -0.47197 | 111.82000 | 38547 ft | 433 kts | 98° |
| 2026-04-24 08:56 | -0.47575 | 111.84985 | 38680 ft | 433 kts | 98° |
| 2026-04-24 08:57 | -0.48328 | 111.90951 | 38728 ft | 431 kts | 98° |
| 2026-04-24 08:57 | -0.49079 | 111.96891 | 38731 ft | 431 kts | 98° |
| 2026-04-24 08:58 | -0.49832 | 112.02841 | 38730 ft | 431 kts | 98° |
| 2026-04-24 08:58 | -0.50583 | 112.08783 | 38729 ft | 431 kts | 98° |
| 2026-04-24 08:59 | -0.51335 | 112.14731 | 38740 ft | 431 kts | 98° |
| 2026-04-24 08:59 | -0.52089 | 112.20684 | 38744 ft | 432 kts | 98° |
| 2026-04-24 09:00 | -0.52843 | 112.26644 | 38744 ft | 432 kts | 97° |
| 2026-04-24 09:00 | -0.53561 | 112.32612 | 38746 ft | 432 kts | 97° |
| 2026-04-24 09:01 | -0.54204 | 112.38587 | 38747 ft | 433 kts | 97° |
| 2026-04-24 09:01 | -0.54855 | 112.44567 | 38748 ft | 433 kts | 97° |
| 2026-04-24 09:02 | -0.55510 | 112.50503 | 38748 ft | 433 kts | 97° |
| 2026-04-24 09:02 | -0.56172 | 112.56484 | 38742 ft | 433 kts | 97° |
| 2026-04-24 09:03 | -0.56833 | 112.62462 | 38741 ft | 433 kts | 97° |
| 2026-04-24 09:03 | -0.57492 | 112.68433 | 38743 ft | 433 kts | 97° |
| 2026-04-24 09:04 | -0.58152 | 112.74414 | 38743 ft | 432 kts | 97° |
| 2026-04-24 09:04 | -0.58813 | 112.80386 | 38740 ft | 433 kts | 97° |
| 2026-04-24 09:05 | -0.59473 | 112.86358 | 38734 ft | 432 kts | 97° |
| 2026-04-24 09:05 | -0.60133 | 112.92328 | 38733 ft | 432 kts | 97° |
| 2026-04-24 09:06 | -0.60790 | 112.98268 | 38732 ft | 432 kts | 97° |
| 2026-04-24 09:06 | -0.61451 | 113.04245 | 38735 ft | 433 kts | 96° |
| 2026-04-24 09:07 | -0.62110 | 113.10219 | 38737 ft | 433 kts | 96° |
| 2026-04-24 09:07 | -0.63099 | 113.19185 | 38731 ft | 433 kts | 96° |
| 2026-04-24 09:08 | -0.63759 | 113.25167 | 38733 ft | 433 kts | 96° |
| 2026-04-24 09:08 | -0.64420 | 113.31155 | 38736 ft | 434 kts | 96° |
| 2026-04-24 09:09 | -0.65078 | 113.37116 | 38739 ft | 434 kts | 96° |
| 2026-04-24 09:09 | -0.65742 | 113.43121 | 38739 ft | 435 kts | 96° |
| 2026-04-24 09:10 | -0.66405 | 113.49134 | 38743 ft | 436 kts | 96° |
| 2026-04-24 09:10 | -0.67071 | 113.55151 | 38746 ft | 436 kts | 96° |
| 2026-04-24 09:11 | -0.67735 | 113.61179 | 38749 ft | 436 kts | 96° |
| 2026-04-24 09:11 | -0.68401 | 113.67212 | 38749 ft | 436 kts | 96° |
| 2026-04-24 09:12 | -0.68953 | 113.72216 | 38756 ft | 436 kts | 96° |
| 2026-04-24 09:12 | -0.69731 | 113.79265 | 38759 ft | 437 kts | 96° |
| 2026-04-24 09:13 | -0.70284 | 113.84275 | 38748 ft | 436 kts | 96° |
| 2026-04-24 09:13 | -0.70943 | 113.90267 | 38754 ft | 432 kts | 97° |
| 2026-04-24 09:14 | -0.71603 | 113.96249 | 38758 ft | 434 kts | 97° |
| 2026-04-24 09:14 | -0.72265 | 114.02239 | 38763 ft | 434 kts | 96° |
| 2026-04-24 09:15 | -0.72928 | 114.08254 | 38765 ft | 436 kts | 96° |
| 2026-04-24 09:15 | -0.73592 | 114.14280 | 38773 ft | 437 kts | 96° |
| 2026-04-24 09:16 | -0.74255 | 114.20309 | 38779 ft | 436 kts | 96° |
| 2026-04-24 09:16 | -0.74917 | 114.26314 | 38788 ft | 435 kts | 96° |
| 2026-04-24 09:17 | -0.75580 | 114.32330 | 38787 ft | 435 kts | 96° |
| 2026-04-24 09:17 | -0.76238 | 114.38304 | 38783 ft | 435 kts | 96° |
| 2026-04-24 09:18 | -0.76900 | 114.44311 | 38788 ft | 435 kts | 96° |
| 2026-04-24 09:18 | -0.77562 | 114.50322 | 38788 ft | 435 kts | 96° |
| 2026-04-24 09:19 | -0.78224 | 114.56331 | 38786 ft | 435 kts | 96° |
| 2026-04-24 09:19 | -0.78886 | 114.62342 | 38787 ft | 435 kts | 96° |
| 2026-04-24 09:20 | -0.79654 | 114.69324 | 38787 ft | 435 kts | 96° |
| 2026-04-24 09:20 | -0.80208 | 114.74355 | 38783 ft | 435 kts | 96° |
| 2026-04-24 09:21 | -0.80870 | 114.80363 | 38782 ft | 435 kts | 96° |
| 2026-04-24 09:21 | -0.81531 | 114.86373 | 38780 ft | 435 kts | 96° |
| 2026-04-24 09:22 | -0.82194 | 114.92392 | 38783 ft | 436 kts | 96° |
| 2026-04-24 09:22 | -0.82931 | 114.98361 | 38779 ft | 436 kts | 100° |
| 2026-04-24 09:23 | -0.84324 | 115.04295 | 38777 ft | 436 kts | 103° |
| 2026-04-24 09:23 | -0.85754 | 115.10140 | 38781 ft | 436 kts | 103° |
| 2026-04-24 09:24 | -0.87192 | 115.16035 | 38787 ft | 436 kts | 103° |
| 2026-04-24 09:24 | -0.88634 | 115.21927 | 38794 ft | 437 kts | 103° |
| 2026-04-24 09:25 | -0.90086 | 115.27868 | 38796 ft | 437 kts | 103° |
| 2026-04-24 09:25 | -0.91518 | 115.33731 | 38797 ft | 438 kts | 103° |
| 2026-04-24 09:26 | -0.92961 | 115.39640 | 38801 ft | 438 kts | 103° |
| 2026-04-24 09:26 | -0.94405 | 115.45555 | 38797 ft | 438 kts | 103° |
| 2026-04-24 09:27 | -0.95849 | 115.51477 | 38798 ft | 439 kts | 103° |
| 2026-04-24 09:27 | -0.97298 | 115.57406 | 38801 ft | 439 kts | 103° |
| 2026-04-24 09:28 | -0.98744 | 115.63327 | 38801 ft | 439 kts | 103° |
| 2026-04-24 09:28 | -1.00193 | 115.69255 | 38800 ft | 439 kts | 103° |
| 2026-04-24 09:29 | -1.01644 | 115.75186 | 38800 ft | 439 kts | 103° |
| 2026-04-24 09:29 | -1.03094 | 115.81116 | 38801 ft | 439 kts | 103° |
| 2026-04-24 09:30 | -1.04782 | 115.88015 | 38806 ft | 440 kts | 103° |
| 2026-04-24 09:30 | -1.05987 | 115.92950 | 38794 ft | 439 kts | 103° |
| 2026-04-24 09:31 | -1.07434 | 115.98869 | 38795 ft | 438 kts | 103° |
| 2026-04-24 09:31 | -1.08881 | 116.04783 | 38800 ft | 438 kts | 103° |
| 2026-04-24 09:32 | -1.10323 | 116.10686 | 38798 ft | 438 kts | 103° |
| 2026-04-24 09:32 | -1.11767 | 116.16594 | 38797 ft | 438 kts | 103° |
| 2026-04-24 09:33 | -1.13209 | 116.22500 | 38799 ft | 437 kts | 103° |
| 2026-04-24 09:33 | -1.13926 | 116.25440 | 38619 ft | 435 kts | 103° |
| 2026-04-24 09:33 | -1.14643 | 116.28379 | 38064 ft | 436 kts | 103° |
| 2026-04-24 09:34 | -1.15362 | 116.31334 | 37310 ft | 440 kts | 103° |
| 2026-04-24 09:34 | -1.16089 | 116.34316 | 36533 ft | 442 kts | 103° |
| 2026-04-24 09:34 | -1.16711 | 116.37318 | 35801 ft | 442 kts | 96° |
| 2026-04-24 09:34 | -1.16827 | 116.40390 | 34956 ft | 445 kts | 86° |
| 2026-04-24 09:35 | -1.16377 | 116.43465 | 34001 ft | 450 kts | 76° |
| 2026-04-24 09:35 | -1.15457 | 116.46466 | 33059 ft | 454 kts | 73° |
| 2026-04-24 09:35 | -1.14481 | 116.49487 | 31997 ft | 458 kts | 73° |
| 2026-04-24 09:35 | -1.13521 | 116.52483 | 30709 ft | 460 kts | 73° |
| 2026-04-24 09:36 | -1.12541 | 116.55549 | 29267 ft | 465 kts | 73° |
| 2026-04-24 09:36 | -1.11555 | 116.58639 | 27810 ft | 469 kts | 72° |
| 2026-04-24 09:36 | -1.10560 | 116.61756 | 26312 ft | 471 kts | 72° |
| 2026-04-24 09:36 | -1.09560 | 116.64884 | 24768 ft | 473 kts | 72° |
| 2026-04-24 09:37 | -1.08558 | 116.68020 | 23408 ft | 471 kts | 72° |
| 2026-04-24 09:37 | -1.07577 | 116.71091 | 22630 ft | 456 kts | 72° |
| 2026-04-24 09:37 | -1.06634 | 116.74037 | 22189 ft | 434 kts | 72° |
| 2026-04-24 09:37 | -1.05693 | 116.76809 | 21956 ft | 410 kts | 69° |
| 2026-04-24 09:38 | -1.04542 | 116.79351 | 21847 ft | 398 kts | 64° |
| 2026-04-24 09:38 | -1.03324 | 116.81848 | 21807 ft | 402 kts | 65° |
| 2026-04-24 09:38 | -1.02106 | 116.84372 | 21804 ft | 403 kts | 65° |
| 2026-04-24 09:38 | -1.00891 | 116.86893 | 21809 ft | 402 kts | 65° |
| 2026-04-24 09:39 | -0.99681 | 116.89400 | 21811 ft | 400 kts | 65° |
| 2026-04-24 09:39 | -0.98467 | 116.91917 | 21804 ft | 402 kts | 65° |
| 2026-04-24 09:39 | -0.97259 | 116.94437 | 21804 ft | 402 kts | 66° |
| 2026-04-24 09:39 | -0.96252 | 116.97044 | 21663 ft | 402 kts | 71° |
| 2026-04-24 09:40 | -0.95332 | 116.99677 | 21408 ft | 400 kts | 71° |
| 2026-04-24 09:40 | -0.94413 | 117.02297 | 20995 ft | 399 kts | 71° |
| 2026-04-24 09:40 | -0.93505 | 117.04875 | 20409 ft | 398 kts | 71° |
| 2026-04-24 09:40 | -0.92587 | 117.07474 | 19807 ft | 395 kts | 71° |
| 2026-04-24 09:41 | -0.91674 | 117.10059 | 19134 ft | 394 kts | 71° |
| 2026-04-24 09:41 | -0.90764 | 117.12632 | 18434 ft | 393 kts | 71° |
| 2026-04-24 09:41 | -0.89853 | 117.15211 | 17730 ft | 391 kts | 71° |
| 2026-04-24 09:41 | -0.88949 | 117.17769 | 17032 ft | 390 kts | 71° |
| 2026-04-24 09:42 | -0.88047 | 117.20321 | 16331 ft | 388 kts | 71° |
| 2026-04-24 09:42 | -0.87150 | 117.22859 | 15631 ft | 386 kts | 71° |
| 2026-04-24 09:42 | -0.86347 | 117.25402 | 15092 ft | 380 kts | 79° |
| 2026-04-24 09:42 | -0.86209 | 117.27997 | 14701 ft | 370 kts | 96° |
| 2026-04-24 09:43 | -0.86824 | 117.30470 | 14214 ft | 365 kts | 112° |
| 2026-04-24 09:43 | -0.88121 | 117.32628 | 13706 ft | 362 kts | 129° |
| 2026-04-24 09:43 | -0.89957 | 117.34296 | 13196 ft | 352 kts | 145° |
| 2026-04-24 09:43 | -0.92122 | 117.35360 | 12699 ft | 343 kts | 158° |
| 2026-04-24 09:44 | -0.94305 | 117.36165 | 12204 ft | 333 kts | 158° |
| 2026-04-24 09:44 | -0.96436 | 117.36957 | 11912 ft | 317 kts | 158° |
| 2026-04-24 09:44 | -0.98421 | 117.37698 | 11996 ft | 303 kts | 158° |
| 2026-04-24 09:44 | -1.00429 | 117.38454 | 12004 ft | 310 kts | 158° |
| 2026-04-24 09:45 | -1.02440 | 117.39209 | 12004 ft | 308 kts | 158° |
| 2026-04-24 09:45 | -1.04429 | 117.39953 | 11945 ft | 309 kts | 158° |
| 2026-04-24 09:45 | -1.06456 | 117.40712 | 11625 ft | 311 kts | 158° |
| 2026-04-24 09:45 | -1.08486 | 117.41472 | 11263 ft | 309 kts | 158° |
| 2026-04-24 09:46 | -1.10482 | 117.42218 | 10927 ft | 304 kts | 158° |
| 2026-04-24 09:46 | -1.12456 | 117.42955 | 10612 ft | 303 kts | 158° |
| 2026-04-24 09:46 | -1.14438 | 117.43696 | 10280 ft | 304 kts | 158° |
| 2026-04-24 09:46 | -1.16410 | 117.44432 | 9961 ft | 301 kts | 158° |
| 2026-04-24 09:47 | -1.18375 | 117.45167 | 9634 ft | 302 kts | 158° |
| 2026-04-24 09:47 | -1.20343 | 117.45904 | 9309 ft | 301 kts | 158° |
| 2026-04-24 09:47 | -1.22268 | 117.46625 | 9075 ft | 298 kts | 158° |
| 2026-04-24 09:47 | -1.24236 | 117.47287 | 9000 ft | 301 kts | 168° |
| 2026-04-24 09:48 | -1.26336 | 117.47266 | 8793 ft | 306 kts | 193° |
| 2026-04-24 09:48 | -1.28245 | 117.46388 | 8497 ft | 302 kts | 218° |
| 2026-04-24 09:48 | -1.29592 | 117.44811 | 8202 ft | 300 kts | 244° |
| 2026-04-24 09:48 | -1.30339 | 117.42864 | 7944 ft | 299 kts | 255° |
| 2026-04-24 09:49 | -1.30889 | 117.40875 | 7667 ft | 296 kts | 256° |
| 2026-04-24 09:49 | -1.31452 | 117.38903 | 7393 ft | 295 kts | 254° |
| 2026-04-24 09:49 | -1.32082 | 117.36945 | 7121 ft | 294 kts | 252° |
| 2026-04-24 09:49 | -1.32758 | 117.35027 | 7020 ft | 292 kts | 251° |
| 2026-04-24 09:50 | -1.33452 | 117.33142 | 7011 ft | 293 kts | 251° |
| 2026-04-24 09:50 | -1.33985 | 117.31183 | 7004 ft | 292 kts | 265° |
| 2026-04-24 09:50 | -1.33934 | 117.29160 | 6823 ft | 292 kts | 282° |
| 2026-04-24 09:50 | -1.33530 | 117.27176 | 6409 ft | 291 kts | 283° |
| 2026-04-24 09:51 | -1.33114 | 117.25197 | 5945 ft | 292 kts | 284° |
| 2026-04-24 09:51 | -1.32697 | 117.23203 | 5470 ft | 293 kts | 283° |
| 2026-04-24 09:51 | -1.32289 | 117.21208 | 4995 ft | 293 kts | 283° |
| 2026-04-24 09:51 | -1.31885 | 117.19212 | 4519 ft | 293 kts | 283° |
| 2026-04-24 09:52 | -1.31481 | 117.17209 | 4039 ft | 293 kts | 283° |
| 2026-04-24 09:52 | -1.31089 | 117.15264 | 3642 ft | 282 kts | 283° |
| 2026-04-24 09:52 | -1.30399 | 117.13523 | 3490 ft | 260 kts | 308° |
| 2026-04-24 09:52 | -1.29113 | 117.12356 | 3190 ft | 245 kts | 334° |
| 2026-04-24 09:53 | -1.27575 | 117.11679 | 2794 ft | 239 kts | 339° |
| 2026-04-24 09:53 | -1.26065 | 117.11045 | 2565 ft | 229 kts | 339° |
| 2026-04-24 09:53 | -1.24638 | 117.10445 | 2502 ft | 215 kts | 339° |
| 2026-04-24 09:53 | -1.23313 | 117.09882 | 2510 ft | 198 kts | 339° |
| 2026-04-24 09:54 | -1.22124 | 117.09375 | 2503 ft | 178 kts | 339° |
| 2026-04-24 09:54 | -1.21052 | 117.08914 | 2502 ft | 156 kts | 339° |
| 2026-04-24 09:54 | -1.20175 | 117.08412 | 2497 ft | 142 kts | 320° |
| 2026-04-24 09:54 | -1.19681 | 117.07542 | 2506 ft | 148 kts | 284° |
| 2026-04-24 09:55 | -1.19721 | 117.06512 | 2506 ft | 150 kts | 260° |
| 2026-04-24 09:55 | -1.20041 | 117.05521 | 2503 ft | 149 kts | 251° |
| 2026-04-24 09:55 | -1.20441 | 117.04579 | 2505 ft | 150 kts | 249° |
| 2026-04-24 09:55 | -1.20852 | 117.03609 | 2504 ft | 152 kts | 249° |
| 2026-04-24 09:56 | -1.21261 | 117.02639 | 2505 ft | 151 kts | 249° |
| 2026-04-24 09:56 | -1.21675 | 117.01659 | 2373 ft | 152 kts | 249° |
| 2026-04-24 09:56 | -1.22084 | 117.00689 | 2169 ft | 150 kts | 249° |
| 2026-04-24 09:56 | -1.22493 | 116.99718 | 1984 ft | 152 kts | 248° |
| 2026-04-24 09:57 | -1.22903 | 116.98747 | 1781 ft | 151 kts | 248° |
| 2026-04-24 09:57 | -1.23304 | 116.97792 | 1584 ft | 151 kts | 248° |
| 2026-04-24 09:57 | -1.23712 | 116.96828 | 1385 ft | 151 kts | 247° |
| 2026-04-24 09:57 | -1.24117 | 116.95864 | 1187 ft | 151 kts | 247° |
| 2026-04-24 09:58 | -1.24523 | 116.94902 | 984 ft | 149 kts | 247° |
| 2026-04-24 09:58 | -1.24929 | 116.93942 | 787 ft | 149 kts | 246° |
| 2026-04-24 09:58 | -1.25333 | 116.93007 | 643 ft | 147 kts | 246° |
| 2026-04-24 09:58 | -1.25736 | 116.92059 | 457 ft | 151 kts | 246° |
| 2026-04-24 09:59 | -1.26146 | 116.91095 | 245 ft | 149 kts | 246° |
| 2026-04-24 09:59 | -1.26540 | 116.90156 | 27 ft | 141 kts | 248° |
| 2026-04-24 09:59 | -1.26874 | 116.89364 | 21 ft | 95 kts | 247° |
| 2026-04-24 09:59 | -1.27042 | 116.88962 | 19 ft | 55 kts | 247° |
| 2026-04-24 10:00 | -1.27141 | 116.88732 | 21 ft | 53 kts | 249° |
| 2026-04-24 10:00 | -1.27238 | 116.88433 | 20 ft | 12 kts | 298° |
| 2026-04-24 10:00 | -1.27184 | 116.88361 | 22 ft | 13 kts | 341° |
| 2026-04-24 10:00 | -1.27126 | 116.88377 | 21 ft | 15 kts | 29° |
| 2026-04-24 10:01 | -1.27056 | 116.88478 | 21 ft | 21 kts | 62° |
| 2026-04-24 10:01 | -1.27003 | 116.88623 | 20 ft | 25 kts | 67° |
| 2026-04-24 10:01 | -1.26930 | 116.88795 | 20 ft | 29 kts | 67° |
| 2026-04-24 10:01 | -1.26849 | 116.88984 | 20 ft | 30 kts | 66° |
| 2026-04-24 10:02 | -1.26769 | 116.89174 | 21 ft | 29 kts | 67° |
| 2026-04-24 10:02 | -1.26659 | 116.89433 | 23 ft | 32 kts | 68° |
| 2026-04-24 10:02 | -1.26603 | 116.89567 | 21 ft | 24 kts | 66° |
| 2026-04-24 10:02 | -1.26536 | 116.89726 | 21 ft | 24 kts | 68° |
| 2026-04-24 10:03 | -1.26470 | 116.89880 | 21 ft | 25 kts | 67° |
| 2026-04-24 10:03 | -1.26404 | 116.90037 | 20 ft | 15 kts | 58° |
| 2026-04-24 10:03 | -1.26318 | 116.90055 | 21 ft | 12 kts | 18° |
| 2026-04-24 10:03 | -1.26269 | 116.90108 | 21 ft | 6 kts | 6° |
| 2026-04-24 10:04 | -1.26228 | 116.90090 | 21 ft | 9 kts | 338° |
| 2026-04-24 10:04 | -1.26213 | 116.90084 | 21 ft | 0 kts | 337° |
| 2026-04-24 10:05 | -1.26215 | 116.90085 | 21 ft | 0 kts | 337° |